sensor_id;sensor_type;location;lat;lon;timestamp;P1;durP1;ratioP1;P2;durP2;ratioP2
39128;SDS011;24864;49.940;19.770;2022-08-27T00:01:47;14.48;;;11.57;;
39128;SDS011;24864;49.940;19.770;2022-08-27T00:04:16;23.70;;;11.75;;
39128;SDS011;24864;49.940;19.770;2022-08-27T00:06:44;19.75;;;10.93;;
39128;SDS011;24864;49.940;19.770;2022-08-27T00:09:12;14.40;;;11.43;;
39128;SDS011;24864;49.940;19.770;2022-08-27T00:11:41;15.27;;;11.48;;
39128;SDS011;24864;49.940;19.770;2022-08-27T00:14:12;18.00;;;11.20;;
39128;SDS011;24864;49.940;19.770;2022-08-27T00:16:41;16.23;;;11.98;;
39128;SDS011;24864;49.940;19.770;2022-08-27T00:19:09;18.27;;;11.02;;
39128;SDS011;24864;49.940;19.770;2022-08-27T00:21:38;17.75;;;11.50;;
39128;SDS011;24864;49.940;19.770;2022-08-27T00:24:05;18.50;;;10.95;;
39128;SDS011;24864;49.940;19.770;2022-08-27T00:26:34;17.75;;;12.05;;
39128;SDS011;24864;49.940;19.770;2022-08-27T00:29:08;24.92;;;12.48;;
39128;SDS011;24864;49.940;19.770;2022-08-27T00:31:38;18.70;;;11.88;;
39128;SDS011;24864;49.940;19.770;2022-08-27T00:34:06;15.68;;;12.48;;
39128;SDS011;24864;49.940;19.770;2022-08-27T00:36:38;17.08;;;12.38;;
39128;SDS011;24864;49.940;19.770;2022-08-27T00:39:06;19.95;;;11.82;;
39128;SDS011;24864;49.940;19.770;2022-08-27T00:41:34;16.02;;;11.75;;
39128;SDS011;24864;49.940;19.770;2022-08-27T00:44:04;24.33;;;12.27;;
39128;SDS011;24864;49.940;19.770;2022-08-27T00:46:33;22.73;;;13.57;;
39128;SDS011;24864;49.940;19.770;2022-08-27T00:49:07;20.02;;;13.40;;
39128;SDS011;24864;49.940;19.770;2022-08-27T00:51:42;29.13;;;14.65;;
39128;SDS011;24864;49.940;19.770;2022-08-27T00:54:15;20.83;;;12.77;;
39128;SDS011;24864;49.940;19.770;2022-08-27T00:56:44;20.98;;;12.23;;
39128;SDS011;24864;49.940;19.770;2022-08-27T00:59:19;16.17;;;11.32;;
39128;SDS011;24864;49.940;19.770;2022-08-27T01:01:49;18.92;;;10.55;;
39128;SDS011;24864;49.940;19.770;2022-08-27T01:04:37;23.17;;;10.52;;
39128;SDS011;24864;49.940;19.770;2022-08-27T01:09:36;17.00;;;10.88;;
39128;SDS011;24864;49.940;19.770;2022-08-27T01:12:05;14.32;;;10.68;;
39128;SDS011;24864;49.940;19.770;2022-08-27T01:14:34;14.95;;;11.25;;
39128;SDS011;24864;49.940;19.770;2022-08-27T01:17:02;16.83;;;10.93;;
39128;SDS011;24864;49.940;19.770;2022-08-27T01:19:35;17.55;;;11.38;;
39128;SDS011;24864;49.940;19.770;2022-08-27T01:22:11;22.58;;;10.27;;
39128;SDS011;24864;49.940;19.770;2022-08-27T01:24:50;14.55;;;10.45;;
39128;SDS011;24864;49.940;19.770;2022-08-27T01:27:21;13.43;;;10.80;;
39128;SDS011;24864;49.940;19.770;2022-08-27T01:29:52;15.88;;;10.32;;
39128;SDS011;24864;49.940;19.770;2022-08-27T01:32:21;18.88;;;11.07;;
39128;SDS011;24864;49.940;19.770;2022-08-27T01:34:51;15.03;;;10.90;;
39128;SDS011;24864;49.940;19.770;2022-08-27T01:37:21;16.67;;;10.95;;
39128;SDS011;24864;49.940;19.770;2022-08-27T01:39:51;15.90;;;10.55;;
39128;SDS011;24864;49.940;19.770;2022-08-27T01:42:22;21.63;;;11.10;;
39128;SDS011;24864;49.940;19.770;2022-08-27T01:47:23;17.48;;;9.63;;
39128;SDS011;24864;49.940;19.770;2022-08-27T01:49:57;20.75;;;10.30;;
39128;SDS011;24864;49.940;19.770;2022-08-27T01:52:27;20.40;;;9.95;;
39128;SDS011;24864;49.940;19.770;2022-08-27T01:54:57;15.93;;;9.98;;
39128;SDS011;24864;49.940;19.770;2022-08-27T01:57:26;19.73;;;10.70;;
39128;SDS011;24864;49.940;19.770;2022-08-27T01:59:54;12.85;;;9.20;;
39128;SDS011;24864;49.940;19.770;2022-08-27T02:02:23;19.98;;;10.07;;
39128;SDS011;24864;49.940;19.770;2022-08-27T02:04:53;21.73;;;10.15;;
39128;SDS011;24864;49.940;19.770;2022-08-27T02:07:21;18.17;;;9.32;;
39128;SDS011;24864;49.940;19.770;2022-08-27T02:09:51;15.43;;;9.45;;
39128;SDS011;24864;49.940;19.770;2022-08-27T02:12:20;15.35;;;9.30;;
39128;SDS011;24864;49.940;19.770;2022-08-27T02:14:48;14.48;;;10.05;;
39128;SDS011;24864;49.940;19.770;2022-08-27T02:17:18;14.13;;;10.00;;
39128;SDS011;24864;49.940;19.770;2022-08-27T02:19:46;13.70;;;9.93;;
39128;SDS011;24864;49.940;19.770;2022-08-27T02:22:14;14.27;;;9.55;;
39128;SDS011;24864;49.940;19.770;2022-08-27T02:24:42;16.60;;;9.57;;
39128;SDS011;24864;49.940;19.770;2022-08-27T02:27:10;14.93;;;9.55;;
39128;SDS011;24864;49.940;19.770;2022-08-27T02:29:40;17.15;;;9.82;;
39128;SDS011;24864;49.940;19.770;2022-08-27T02:32:11;15.65;;;9.32;;
39128;SDS011;24864;49.940;19.770;2022-08-27T02:34:50;13.38;;;9.75;;
39128;SDS011;24864;49.940;19.770;2022-08-27T02:37:18;17.13;;;10.10;;
39128;SDS011;24864;49.940;19.770;2022-08-27T02:39:46;13.13;;;9.93;;
39128;SDS011;24864;49.940;19.770;2022-08-27T02:42:15;16.40;;;9.77;;
39128;SDS011;24864;49.940;19.770;2022-08-27T02:44:44;18.85;;;9.85;;
39128;SDS011;24864;49.940;19.770;2022-08-27T02:47:12;14.35;;;9.50;;
39128;SDS011;24864;49.940;19.770;2022-08-27T02:49:42;17.60;;;10.00;;
39128;SDS011;24864;49.940;19.770;2022-08-27T02:52:11;15.68;;;10.07;;
39128;SDS011;24864;49.940;19.770;2022-08-27T02:54:39;17.08;;;10.00;;
39128;SDS011;24864;49.940;19.770;2022-08-27T02:57:07;14.85;;;8.90;;
39128;SDS011;24864;49.940;19.770;2022-08-27T02:59:35;19.33;;;9.00;;
39128;SDS011;24864;49.940;19.770;2022-08-27T03:02:05;14.98;;;9.35;;
39128;SDS011;24864;49.940;19.770;2022-08-27T03:04:33;14.35;;;9.70;;
39128;SDS011;24864;49.940;19.770;2022-08-27T03:07:01;17.27;;;10.35;;
39128;SDS011;24864;49.940;19.770;2022-08-27T03:09:29;15.35;;;9.85;;
39128;SDS011;24864;49.940;19.770;2022-08-27T03:11:57;19.85;;;10.40;;
39128;SDS011;24864;49.940;19.770;2022-08-27T03:14:25;15.05;;;11.48;;
39128;SDS011;24864;49.940;19.770;2022-08-27T03:16:54;10.75;;;9.32;;
39128;SDS011;24864;49.940;19.770;2022-08-27T03:19:43;17.67;;;9.52;;
39128;SDS011;24864;49.940;19.770;2022-08-27T03:22:10;15.18;;;9.15;;
39128;SDS011;24864;49.940;19.770;2022-08-27T03:24:40;14.80;;;9.50;;
39128;SDS011;24864;49.940;19.770;2022-08-27T03:27:08;17.17;;;9.60;;
39128;SDS011;24864;49.940;19.770;2022-08-27T03:29:36;14.70;;;9.93;;
39128;SDS011;24864;49.940;19.770;2022-08-27T03:32:04;18.83;;;9.52;;
39128;SDS011;24864;49.940;19.770;2022-08-27T03:34:33;15.63;;;9.20;;
39128;SDS011;24864;49.940;19.770;2022-08-27T03:37:02;13.27;;;9.57;;
39128;SDS011;24864;49.940;19.770;2022-08-27T03:39:30;21.17;;;10.13;;
39128;SDS011;24864;49.940;19.770;2022-08-27T03:41:58;16.17;;;9.88;;
39128;SDS011;24864;49.940;19.770;2022-08-27T03:44:26;13.48;;;9.75;;
39128;SDS011;24864;49.940;19.770;2022-08-27T03:46:54;15.25;;;9.68;;
39128;SDS011;24864;49.940;19.770;2022-08-27T03:49:22;14.88;;;10.23;;
39128;SDS011;24864;49.940;19.770;2022-08-27T03:51:51;14.65;;;10.10;;
39128;SDS011;24864;49.940;19.770;2022-08-27T03:54:22;21.02;;;10.40;;
39128;SDS011;24864;49.940;19.770;2022-08-27T03:56:51;17.38;;;10.25;;
39128;SDS011;24864;49.940;19.770;2022-08-27T03:59:19;13.30;;;9.35;;
39128;SDS011;24864;49.940;19.770;2022-08-27T04:01:47;13.27;;;9.05;;
39128;SDS011;24864;49.940;19.770;2022-08-27T04:04:15;16.70;;;8.63;;
39128;SDS011;24864;49.940;19.770;2022-08-27T04:06:43;14.45;;;9.25;;
39128;SDS011;24864;49.940;19.770;2022-08-27T04:09:11;12.93;;;9.20;;
39128;SDS011;24864;49.940;19.770;2022-08-27T04:11:40;14.30;;;9.45;;
39128;SDS011;24864;49.940;19.770;2022-08-27T04:14:08;16.83;;;10.43;;
39128;SDS011;24864;49.940;19.770;2022-08-27T04:16:53;14.18;;;9.68;;
39128;SDS011;24864;49.940;19.770;2022-08-27T04:19:22;21.92;;;10.20;;
39128;SDS011;24864;49.940;19.770;2022-08-27T04:21:57;15.38;;;9.25;;
39128;SDS011;24864;49.940;19.770;2022-08-27T04:24:27;14.13;;;9.30;;
39128;SDS011;24864;49.940;19.770;2022-08-27T04:26:57;15.02;;;9.32;;
39128;SDS011;24864;49.940;19.770;2022-08-27T04:29:26;14.27;;;9.38;;
39128;SDS011;24864;49.940;19.770;2022-08-27T04:31:54;15.23;;;9.20;;
39128;SDS011;24864;49.940;19.770;2022-08-27T04:34:23;13.93;;;9.63;;
39128;SDS011;24864;49.940;19.770;2022-08-27T04:36:53;13.52;;;9.43;;
39128;SDS011;24864;49.940;19.770;2022-08-27T04:39:23;13.43;;;9.23;;
39128;SDS011;24864;49.940;19.770;2022-08-27T04:41:53;13.43;;;8.68;;
39128;SDS011;24864;49.940;19.770;2022-08-27T04:44:24;12.75;;;8.90;;
39128;SDS011;24864;49.940;19.770;2022-08-27T04:46:54;12.13;;;8.40;;
39128;SDS011;24864;49.940;19.770;2022-08-27T04:49:23;13.32;;;8.05;;
39128;SDS011;24864;49.940;19.770;2022-08-27T04:51:53;14.00;;;8.85;;
39128;SDS011;24864;49.940;19.770;2022-08-27T04:54:22;12.23;;;8.50;;
39128;SDS011;24864;49.940;19.770;2022-08-27T04:56:58;13.05;;;8.88;;
39128;SDS011;24864;49.940;19.770;2022-08-27T04:59:27;15.68;;;8.27;;
39128;SDS011;24864;49.940;19.770;2022-08-27T05:01:55;11.48;;;9.20;;
39128;SDS011;24864;49.940;19.770;2022-08-27T05:04:23;12.20;;;8.60;;
39128;SDS011;24864;49.940;19.770;2022-08-27T05:06:52;17.55;;;9.07;;
39128;SDS011;24864;49.940;19.770;2022-08-27T05:09:20;12.00;;;8.23;;
39128;SDS011;24864;49.940;19.770;2022-08-27T05:11:52;11.88;;;8.57;;
39128;SDS011;24864;49.940;19.770;2022-08-27T05:14:21;13.18;;;7.85;;
39128;SDS011;24864;49.940;19.770;2022-08-27T05:16:52;12.43;;;8.90;;
39128;SDS011;24864;49.940;19.770;2022-08-27T05:19:20;15.68;;;8.50;;
39128;SDS011;24864;49.940;19.770;2022-08-27T05:21:49;10.05;;;8.18;;
39128;SDS011;24864;49.940;19.770;2022-08-27T05:24:18;12.20;;;8.07;;
39128;SDS011;24864;49.940;19.770;2022-08-27T05:26:47;13.82;;;7.97;;
39128;SDS011;24864;49.940;19.770;2022-08-27T05:29:16;11.88;;;7.50;;
39128;SDS011;24864;49.940;19.770;2022-08-27T05:31:44;14.77;;;8.25;;
39128;SDS011;24864;49.940;19.770;2022-08-27T05:34:15;11.05;;;7.82;;
39128;SDS011;24864;49.940;19.770;2022-08-27T05:36:52;12.60;;;7.65;;
39128;SDS011;24864;49.940;19.770;2022-08-27T05:39:21;14.55;;;8.02;;
39128;SDS011;24864;49.940;19.770;2022-08-27T05:41:49;15.32;;;8.23;;
39128;SDS011;24864;49.940;19.770;2022-08-27T05:44:18;10.45;;;8.15;;
39128;SDS011;24864;49.940;19.770;2022-08-27T05:47:06;11.75;;;7.35;;
39128;SDS011;24864;49.940;19.770;2022-08-27T05:49:35;19.65;;;8.32;;
39128;SDS011;24864;49.940;19.770;2022-08-27T05:52:06;19.08;;;7.55;;
39128;SDS011;24864;49.940;19.770;2022-08-27T05:54:35;11.77;;;7.85;;
39128;SDS011;24864;49.940;19.770;2022-08-27T05:57:04;11.40;;;8.10;;
39128;SDS011;24864;49.940;19.770;2022-08-27T05:59:31;11.32;;;8.15;;
39128;SDS011;24864;49.940;19.770;2022-08-27T06:02:18;11.75;;;7.45;;
39128;SDS011;24864;49.940;19.770;2022-08-27T06:04:47;11.70;;;7.28;;
39128;SDS011;24864;49.940;19.770;2022-08-27T06:07:16;11.57;;;8.55;;
39128;SDS011;24864;49.940;19.770;2022-08-27T06:09:44;13.38;;;7.40;;
39128;SDS011;24864;49.940;19.770;2022-08-27T06:12:12;12.48;;;7.70;;
39128;SDS011;24864;49.940;19.770;2022-08-27T06:14:40;10.82;;;8.18;;
39128;SDS011;24864;49.940;19.770;2022-08-27T06:17:08;12.63;;;8.00;;
39128;SDS011;24864;49.940;19.770;2022-08-27T06:19:36;13.00;;;7.97;;
39128;SDS011;24864;49.940;19.770;2022-08-27T06:22:06;18.55;;;7.45;;
39128;SDS011;24864;49.940;19.770;2022-08-27T06:24:37;14.35;;;7.82;;
39128;SDS011;24864;49.940;19.770;2022-08-27T06:27:07;14.18;;;8.23;;
39128;SDS011;24864;49.940;19.770;2022-08-27T06:29:37;14.02;;;6.90;;
39128;SDS011;24864;49.940;19.770;2022-08-27T06:32:05;9.90;;;7.57;;
39128;SDS011;24864;49.940;19.770;2022-08-27T06:34:34;14.60;;;7.88;;
39128;SDS011;24864;49.940;19.770;2022-08-27T06:37:03;10.25;;;7.45;;
39128;SDS011;24864;49.940;19.770;2022-08-27T06:39:33;15.07;;;7.28;;
39128;SDS011;24864;49.940;19.770;2022-08-27T06:42:03;12.45;;;7.70;;
39128;SDS011;24864;49.940;19.770;2022-08-27T06:44:32;11.70;;;7.45;;
39128;SDS011;24864;49.940;19.770;2022-08-27T06:47:00;13.68;;;8.43;;
39128;SDS011;24864;49.940;19.770;2022-08-27T06:49:29;11.80;;;7.53;;
39128;SDS011;24864;49.940;19.770;2022-08-27T06:51:59;13.07;;;7.47;;
39128;SDS011;24864;49.940;19.770;2022-08-27T06:54:27;10.55;;;7.18;;
39128;SDS011;24864;49.940;19.770;2022-08-27T06:56:58;15.43;;;7.53;;
39128;SDS011;24864;49.940;19.770;2022-08-27T06:59:26;12.77;;;8.07;;
39128;SDS011;24864;49.940;19.770;2022-08-27T07:01:54;9.95;;;7.68;;
39128;SDS011;24864;49.940;19.770;2022-08-27T07:04:23;13.00;;;7.82;;
39128;SDS011;24864;49.940;19.770;2022-08-27T07:06:59;14.73;;;7.50;;
39128;SDS011;24864;49.940;19.770;2022-08-27T07:09:28;16.63;;;7.47;;
39128;SDS011;24864;49.940;19.770;2022-08-27T07:11:59;17.90;;;8.07;;
39128;SDS011;24864;49.940;19.770;2022-08-27T07:14:28;23.38;;;8.23;;
39128;SDS011;24864;49.940;19.770;2022-08-27T07:17:03;19.63;;;8.85;;
39128;SDS011;24864;49.940;19.770;2022-08-27T07:22:06;14.70;;;7.65;;
39128;SDS011;24864;49.940;19.770;2022-08-27T07:24:35;17.08;;;8.60;;
39128;SDS011;24864;49.940;19.770;2022-08-27T07:27:05;15.10;;;9.02;;
39128;SDS011;24864;49.940;19.770;2022-08-27T07:29:35;15.43;;;8.02;;
39128;SDS011;24864;49.940;19.770;2022-08-27T07:32:03;11.70;;;8.10;;
39128;SDS011;24864;49.940;19.770;2022-08-27T07:34:32;18.15;;;8.00;;
39128;SDS011;24864;49.940;19.770;2022-08-27T07:37:00;14.75;;;8.60;;
39128;SDS011;24864;49.940;19.770;2022-08-27T07:39:28;12.13;;;7.85;;
39128;SDS011;24864;49.940;19.770;2022-08-27T07:41:56;13.15;;;8.40;;
39128;SDS011;24864;49.940;19.770;2022-08-27T07:44:43;10.68;;;8.95;;
39128;SDS011;24864;49.940;19.770;2022-08-27T07:47:11;19.05;;;7.97;;
39128;SDS011;24864;49.940;19.770;2022-08-27T07:49:39;14.95;;;7.88;;
39128;SDS011;24864;49.940;19.770;2022-08-27T07:52:07;12.00;;;7.97;;
39128;SDS011;24864;49.940;19.770;2022-08-27T07:54:35;12.02;;;8.30;;
39128;SDS011;24864;49.940;19.770;2022-08-27T07:57:03;15.23;;;8.38;;
39128;SDS011;24864;49.940;19.770;2022-08-27T07:59:31;12.65;;;7.68;;
39128;SDS011;24864;49.940;19.770;2022-08-27T08:02:01;14.32;;;7.68;;
39128;SDS011;24864;49.940;19.770;2022-08-27T08:04:29;10.77;;;7.95;;
39128;SDS011;24864;49.940;19.770;2022-08-27T08:06:57;10.32;;;7.32;;
39128;SDS011;24864;49.940;19.770;2022-08-27T08:09:25;12.82;;;7.38;;
39128;SDS011;24864;49.940;19.770;2022-08-27T08:11:53;12.32;;;8.43;;
39128;SDS011;24864;49.940;19.770;2022-08-27T08:14:21;16.85;;;8.13;;
39128;SDS011;24864;49.940;19.770;2022-08-27T08:16:49;17.42;;;8.60;;
39128;SDS011;24864;49.940;19.770;2022-08-27T08:19:19;10.25;;;8.25;;
39128;SDS011;24864;49.940;19.770;2022-08-27T08:21:47;16.80;;;8.85;;
39128;SDS011;24864;49.940;19.770;2022-08-27T08:24:25;16.33;;;8.52;;
39128;SDS011;24864;49.940;19.770;2022-08-27T08:26:53;12.40;;;8.63;;
39128;SDS011;24864;49.940;19.770;2022-08-27T08:29:21;15.30;;;8.50;;
39128;SDS011;24864;49.940;19.770;2022-08-27T08:31:49;9.90;;;7.88;;
39128;SDS011;24864;49.940;19.770;2022-08-27T08:34:19;9.75;;;8.05;;
39128;SDS011;24864;49.940;19.770;2022-08-27T08:36:47;12.85;;;7.80;;
39128;SDS011;24864;49.940;19.770;2022-08-27T08:39:21;11.20;;;7.53;;
39128;SDS011;24864;49.940;19.770;2022-08-27T08:41:50;10.52;;;7.60;;
39128;SDS011;24864;49.940;19.770;2022-08-27T08:44:23;13.43;;;7.40;;
39128;SDS011;24864;49.940;19.770;2022-08-27T08:46:57;17.90;;;8.38;;
39128;SDS011;24864;49.940;19.770;2022-08-27T08:49:36;13.45;;;7.90;;
39128;SDS011;24864;49.940;19.770;2022-08-27T08:52:14;16.00;;;8.23;;
39128;SDS011;24864;49.940;19.770;2022-08-27T08:54:59;13.50;;;7.70;;
39128;SDS011;24864;49.940;19.770;2022-08-27T08:57:35;9.45;;;7.38;;
39128;SDS011;24864;49.940;19.770;2022-08-27T09:00:09;13.95;;;8.35;;
39128;SDS011;24864;49.940;19.770;2022-08-27T09:02:39;15.30;;;8.38;;
39128;SDS011;24864;49.940;19.770;2022-08-27T09:05:17;15.82;;;7.85;;
39128;SDS011;24864;49.940;19.770;2022-08-27T09:07:54;10.93;;;7.13;;
39128;SDS011;24864;49.940;19.770;2022-08-27T09:10:50;13.85;;;7.63;;
39128;SDS011;24864;49.940;19.770;2022-08-27T09:13:24;11.95;;;8.55;;
39128;SDS011;24864;49.940;19.770;2022-08-27T09:15:59;15.35;;;8.40;;
39128;SDS011;24864;49.940;19.770;2022-08-27T09:18:30;10.60;;;8.02;;
39128;SDS011;24864;49.940;19.770;2022-08-27T09:21:05;11.82;;;8.02;;
39128;SDS011;24864;49.940;19.770;2022-08-27T09:24:02;16.30;;;8.40;;
39128;SDS011;24864;49.940;19.770;2022-08-27T09:26:34;14.80;;;8.82;;
39128;SDS011;24864;49.940;19.770;2022-08-27T09:31:47;12.30;;;8.45;;
39128;SDS011;24864;49.940;19.770;2022-08-27T09:34:22;13.25;;;8.95;;
39128;SDS011;24864;49.940;19.770;2022-08-27T09:36:53;13.80;;;8.88;;
39128;SDS011;24864;49.940;19.770;2022-08-27T09:39:28;15.05;;;9.98;;
39128;SDS011;24864;49.940;19.770;2022-08-27T09:42:01;15.95;;;10.57;;
39128;SDS011;24864;49.940;19.770;2022-08-27T09:44:31;13.27;;;8.77;;
39128;SDS011;24864;49.940;19.770;2022-08-27T09:47:00;10.93;;;9.18;;
39128;SDS011;24864;49.940;19.770;2022-08-27T09:49:30;14.60;;;9.48;;
39128;SDS011;24864;49.940;19.770;2022-08-27T09:52:01;17.10;;;9.45;;
39128;SDS011;24864;49.940;19.770;2022-08-27T09:54:38;18.02;;;9.73;;
39128;SDS011;24864;49.940;19.770;2022-08-27T09:57:09;20.63;;;9.55;;
39128;SDS011;24864;49.940;19.770;2022-08-27T09:59:40;12.07;;;9.40;;
39128;SDS011;24864;49.940;19.770;2022-08-27T10:02:17;14.27;;;8.15;;
39128;SDS011;24864;49.940;19.770;2022-08-27T10:04:47;11.23;;;8.52;;
39128;SDS011;24864;49.940;19.770;2022-08-27T10:07:23;17.15;;;7.88;;
39128;SDS011;24864;49.940;19.770;2022-08-27T10:09:59;13.45;;;8.73;;
39128;SDS011;24864;49.940;19.770;2022-08-27T10:12:39;14.52;;;8.63;;
39128;SDS011;24864;49.940;19.770;2022-08-27T10:15:15;14.07;;;9.02;;
39128;SDS011;24864;49.940;19.770;2022-08-27T10:17:46;21.85;;;9.30;;
39128;SDS011;24864;49.940;19.770;2022-08-27T10:20:24;11.85;;;8.60;;
39128;SDS011;24864;49.940;19.770;2022-08-27T10:23:03;17.45;;;9.27;;
39128;SDS011;24864;49.940;19.770;2022-08-27T10:25:43;14.73;;;8.68;;
39128;SDS011;24864;49.940;19.770;2022-08-27T10:28:28;16.67;;;9.32;;
39128;SDS011;24864;49.940;19.770;2022-08-27T10:31:09;17.00;;;9.63;;
39128;SDS011;24864;49.940;19.770;2022-08-27T10:33:47;17.40;;;9.02;;
39128;SDS011;24864;49.940;19.770;2022-08-27T10:36:25;20.25;;;9.82;;
39128;SDS011;24864;49.940;19.770;2022-08-27T10:39:04;14.02;;;9.43;;
39128;SDS011;24864;49.940;19.770;2022-08-27T10:41:40;14.85;;;9.60;;
39128;SDS011;24864;49.940;19.770;2022-08-27T10:44:21;23.85;;;9.93;;
39128;SDS011;24864;49.940;19.770;2022-08-27T10:47:12;18.73;;;10.70;;
39128;SDS011;24864;49.940;19.770;2022-08-27T10:49:51;18.92;;;9.52;;
39128;SDS011;24864;49.940;19.770;2022-08-27T10:52:27;14.10;;;9.57;;
39128;SDS011;24864;49.940;19.770;2022-08-27T10:55:03;17.70;;;9.77;;
39128;SDS011;24864;49.940;19.770;2022-08-27T10:57:42;13.43;;;9.38;;
39128;SDS011;24864;49.940;19.770;2022-08-27T11:00:29;12.95;;;8.13;;
39128;SDS011;24864;49.940;19.770;2022-08-27T11:03:06;16.05;;;8.45;;
39128;SDS011;24864;49.940;19.770;2022-08-27T11:05:41;15.75;;;9.32;;
39128;SDS011;24864;49.940;19.770;2022-08-27T11:08:13;16.27;;;8.50;;
39128;SDS011;24864;49.940;19.770;2022-08-27T11:10:46;19.67;;;8.98;;
39128;SDS011;24864;49.940;19.770;2022-08-27T11:13:18;14.20;;;8.27;;
39128;SDS011;24864;49.940;19.770;2022-08-27T11:15:52;18.27;;;9.02;;
39128;SDS011;24864;49.940;19.770;2022-08-27T11:18:25;15.73;;;8.82;;
39128;SDS011;24864;49.940;19.770;2022-08-27T11:21:03;17.73;;;7.95;;
39128;SDS011;24864;49.940;19.770;2022-08-27T11:23:38;15.13;;;8.45;;
39128;SDS011;24864;49.940;19.770;2022-08-27T11:26:12;9.20;;;7.45;;
39128;SDS011;24864;49.940;19.770;2022-08-27T11:28:41;21.42;;;8.68;;
39128;SDS011;24864;49.940;19.770;2022-08-27T11:31:14;11.57;;;8.23;;
39128;SDS011;24864;49.940;19.770;2022-08-27T11:33:48;20.52;;;8.60;;
39128;SDS011;24864;49.940;19.770;2022-08-27T11:36:27;14.80;;;9.07;;
39128;SDS011;24864;49.940;19.770;2022-08-27T11:39:11;14.68;;;8.15;;
39128;SDS011;24864;49.940;19.770;2022-08-27T11:41:56;14.30;;;8.25;;
39128;SDS011;24864;49.940;19.770;2022-08-27T11:44:32;12.07;;;7.70;;
39128;SDS011;24864;49.940;19.770;2022-08-27T11:47:08;11.98;;;7.93;;
39128;SDS011;24864;49.940;19.770;2022-08-27T11:52:18;14.65;;;8.18;;
39128;SDS011;24864;49.940;19.770;2022-08-27T11:54:48;16.08;;;8.13;;
39128;SDS011;24864;49.940;19.770;2022-08-27T11:57:27;17.90;;;8.13;;
39128;SDS011;24864;49.940;19.770;2022-08-27T11:59:57;11.68;;;7.10;;
39128;SDS011;24864;49.940;19.770;2022-08-27T12:05:05;11.95;;;7.78;;
39128;SDS011;24864;49.940;19.770;2022-08-27T12:07:36;11.63;;;8.23;;
39128;SDS011;24864;49.940;19.770;2022-08-27T12:10:09;13.23;;;8.07;;
39128;SDS011;24864;49.940;19.770;2022-08-27T12:12:51;14.93;;;8.85;;
39128;SDS011;24864;49.940;19.770;2022-08-27T12:15:32;12.75;;;7.80;;
39128;SDS011;24864;49.940;19.770;2022-08-27T12:18:20;15.98;;;7.78;;
39128;SDS011;24864;49.940;19.770;2022-08-27T12:21:02;14.65;;;7.35;;
39128;SDS011;24864;49.940;19.770;2022-08-27T12:23:40;14.13;;;8.57;;
39128;SDS011;24864;49.940;19.770;2022-08-27T12:26:20;15.80;;;9.00;;
39128;SDS011;24864;49.940;19.770;2022-08-27T12:31:54;12.95;;;7.88;;
39128;SDS011;24864;49.940;19.770;2022-08-27T12:34:30;13.77;;;8.95;;
39128;SDS011;24864;49.940;19.770;2022-08-27T12:37:09;13.15;;;7.68;;
39128;SDS011;24864;49.940;19.770;2022-08-27T12:39:39;14.02;;;7.82;;
39128;SDS011;24864;49.940;19.770;2022-08-27T12:42:16;18.45;;;8.63;;
39128;SDS011;24864;49.940;19.770;2022-08-27T12:44:53;16.90;;;8.45;;
39128;SDS011;24864;49.940;19.770;2022-08-27T12:47:22;14.60;;;8.20;;
39128;SDS011;24864;49.940;19.770;2022-08-27T12:49:52;16.83;;;8.00;;
39128;SDS011;24864;49.940;19.770;2022-08-27T12:52:31;11.15;;;7.88;;
39128;SDS011;24864;49.940;19.770;2022-08-27T12:55:13;12.82;;;7.65;;
39128;SDS011;24864;49.940;19.770;2022-08-27T12:57:51;12.98;;;7.57;;
39128;SDS011;24864;49.940;19.770;2022-08-27T13:00:28;12.57;;;7.68;;
39128;SDS011;24864;49.940;19.770;2022-08-27T13:03:11;15.35;;;7.68;;
39128;SDS011;24864;49.940;19.770;2022-08-27T13:05:49;9.88;;;6.93;;
39128;SDS011;24864;49.940;19.770;2022-08-27T13:08:23;16.90;;;7.40;;
39128;SDS011;24864;49.940;19.770;2022-08-27T13:10:55;10.85;;;7.75;;
39128;SDS011;24864;49.940;19.770;2022-08-27T13:13:24;12.55;;;7.57;;
39128;SDS011;24864;49.940;19.770;2022-08-27T13:15:54;13.38;;;7.40;;
39128;SDS011;24864;49.940;19.770;2022-08-27T13:18:24;15.60;;;6.93;;
39128;SDS011;24864;49.940;19.770;2022-08-27T13:23:28;16.40;;;6.97;;
39128;SDS011;24864;49.940;19.770;2022-08-27T13:26:01;14.32;;;6.85;;
39128;SDS011;24864;49.940;19.770;2022-08-27T13:28:33;17.17;;;6.88;;
39128;SDS011;24864;49.940;19.770;2022-08-27T13:31:05;16.70;;;6.68;;
39128;SDS011;24864;49.940;19.770;2022-08-27T13:33:36;9.15;;;6.63;;
39128;SDS011;24864;49.940;19.770;2022-08-27T13:36:06;10.90;;;7.88;;
39128;SDS011;24864;49.940;19.770;2022-08-27T13:38:35;17.95;;;6.93;;
39128;SDS011;24864;49.940;19.770;2022-08-27T13:41:06;12.63;;;6.47;;
39128;SDS011;24864;49.940;19.770;2022-08-27T13:43:36;14.63;;;6.85;;
39128;SDS011;24864;49.940;19.770;2022-08-27T13:46:10;8.90;;;6.40;;
39128;SDS011;24864;49.940;19.770;2022-08-27T13:48:41;17.17;;;6.85;;
39128;SDS011;24864;49.940;19.770;2022-08-27T13:51:11;10.07;;;7.13;;
39128;SDS011;24864;49.940;19.770;2022-08-27T13:53:41;10.30;;;7.57;;
39128;SDS011;24864;49.940;19.770;2022-08-27T13:56:30;13.25;;;6.43;;
39128;SDS011;24864;49.940;19.770;2022-08-27T13:59:07;15.80;;;6.82;;
39128;SDS011;24864;49.940;19.770;2022-08-27T14:01:42;13.70;;;6.45;;
39128;SDS011;24864;49.940;19.770;2022-08-27T14:04:22;20.08;;;6.38;;
39128;SDS011;24864;49.940;19.770;2022-08-27T14:06:52;11.48;;;6.68;;
39128;SDS011;24864;49.940;19.770;2022-08-27T14:09:22;12.45;;;6.82;;
39128;SDS011;24864;49.940;19.770;2022-08-27T14:11:59;11.07;;;6.95;;
39128;SDS011;24864;49.940;19.770;2022-08-27T14:14:29;13.85;;;6.50;;
39128;SDS011;24864;49.940;19.770;2022-08-27T14:17:04;18.50;;;7.10;;
39128;SDS011;24864;49.940;19.770;2022-08-27T14:19:46;22.63;;;7.13;;
39128;SDS011;24864;49.940;19.770;2022-08-27T14:22:15;15.75;;;7.00;;
39128;SDS011;24864;49.940;19.770;2022-08-27T14:24:43;9.30;;;7.70;;
39128;SDS011;24864;49.940;19.770;2022-08-27T14:27:12;13.68;;;8.35;;
39128;SDS011;24864;49.940;19.770;2022-08-27T14:29:41;16.90;;;8.10;;
39128;SDS011;24864;49.940;19.770;2022-08-27T14:32:11;12.32;;;7.45;;
39128;SDS011;24864;49.940;19.770;2022-08-27T14:34:39;14.85;;;8.40;;
39128;SDS011;24864;49.940;19.770;2022-08-27T14:37:08;13.52;;;7.93;;
39128;SDS011;24864;49.940;19.770;2022-08-27T14:39:36;15.35;;;8.45;;
39128;SDS011;24864;49.940;19.770;2022-08-27T14:42:07;14.07;;;7.30;;
39128;SDS011;24864;49.940;19.770;2022-08-27T14:44:36;22.58;;;8.32;;
39128;SDS011;24864;49.940;19.770;2022-08-27T14:47:05;14.32;;;8.00;;
39128;SDS011;24864;49.940;19.770;2022-08-27T14:49:37;17.15;;;8.07;;
39128;SDS011;24864;49.940;19.770;2022-08-27T14:52:07;10.57;;;6.63;;
39128;SDS011;24864;49.940;19.770;2022-08-27T14:54:37;15.93;;;8.57;;
39128;SDS011;24864;49.940;19.770;2022-08-27T14:57:05;15.73;;;8.75;;
39128;SDS011;24864;49.940;19.770;2022-08-27T14:59:35;12.73;;;8.57;;
39128;SDS011;24864;49.940;19.770;2022-08-27T15:02:05;19.45;;;9.10;;
39128;SDS011;24864;49.940;19.770;2022-08-27T15:04:40;9.82;;;7.85;;
39128;SDS011;24864;49.940;19.770;2022-08-27T15:07:13;26.15;;;10.20;;